sensor_id;sensor_type;location;lat;lon;timestamp;P1;durP1;ratioP1;P2;durP2;ratioP2
59074;SDS011;44860;53.020;6.738;2024-02-21T00:00:17;17.65;;;4.13;;
59074;SDS011;44860;53.020;6.738;2024-02-21T00:02:43;16.88;;;4.40;;
59074;SDS011;44860;53.020;6.738;2024-02-21T00:05:09;16.38;;;4.53;;
59074;SDS011;44860;53.020;6.738;2024-02-21T00:07:34;17.60;;;4.40;;
59074;SDS011;44860;53.020;6.738;2024-02-21T00:10:00;18.02;;;4.45;;
59074;SDS011;44860;53.020;6.738;2024-02-21T00:12:26;16.50;;;3.97;;
59074;SDS011;44860;53.020;6.738;2024-02-21T00:14:51;16.65;;;4.35;;
59074;SDS011;44860;53.020;6.738;2024-02-21T00:17:17;15.20;;;3.88;;
59074;SDS011;44860;53.020;6.738;2024-02-21T00:19:42;17.13;;;4.47;;
59074;SDS011;44860;53.020;6.738;2024-02-21T00:22:08;15.93;;;3.90;;
59074;SDS011;44860;53.020;6.738;2024-02-21T00:24:34;16.77;;;4.97;;
59074;SDS011;44860;53.020;6.738;2024-02-21T00:26:59;17.45;;;4.80;;
59074;SDS011;44860;53.020;6.738;2024-02-21T00:29:25;18.33;;;4.20;;
59074;SDS011;44860;53.020;6.738;2024-02-21T00:31:51;18.83;;;3.92;;
59074;SDS011;44860;53.020;6.738;2024-02-21T00:34:16;16.10;;;3.90;;
59074;SDS011;44860;53.020;6.738;2024-02-21T00:36:42;14.70;;;4.13;;
59074;SDS011;44860;53.020;6.738;2024-02-21T00:39:08;18.10;;;4.38;;
59074;SDS011;44860;53.020;6.738;2024-02-21T00:41:33;11.90;;;4.15;;
59074;SDS011;44860;53.020;6.738;2024-02-21T00:43:59;16.65;;;4.43;;
59074;SDS011;44860;53.020;6.738;2024-02-21T00:46:25;18.63;;;4.30;;
59074;SDS011;44860;53.020;6.738;2024-02-21T00:48:50;19.70;;;4.35;;
59074;SDS011;44860;53.020;6.738;2024-02-21T00:51:16;15.93;;;3.90;;
59074;SDS011;44860;53.020;6.738;2024-02-21T00:53:42;15.02;;;4.18;;
59074;SDS011;44860;53.020;6.738;2024-02-21T00:56:08;19.40;;;4.60;;
59074;SDS011;44860;53.020;6.738;2024-02-21T00:58:33;17.63;;;4.35;;
59074;SDS011;44860;53.020;6.738;2024-02-21T01:01:02;17.25;;;4.32;;
59074;SDS011;44860;53.020;6.738;2024-02-21T01:03:28;19.55;;;4.72;;
59074;SDS011;44860;53.020;6.738;2024-02-21T01:05:54;19.35;;;5.03;;
59074;SDS011;44860;53.020;6.738;2024-02-21T01:08:19;18.23;;;4.45;;
59074;SDS011;44860;53.020;6.738;2024-02-21T01:10:45;19.25;;;4.90;;
59074;SDS011;44860;53.020;6.738;2024-02-21T01:13:11;16.88;;;3.67;;
59074;SDS011;44860;53.020;6.738;2024-02-21T01:15:36;15.60;;;4.30;;
59074;SDS011;44860;53.020;6.738;2024-02-21T01:18:02;18.58;;;4.57;;
59074;SDS011;44860;53.020;6.738;2024-02-21T01:20:28;19.17;;;4.45;;
59074;SDS011;44860;53.020;6.738;2024-02-21T01:22:53;18.52;;;4.40;;
59074;SDS011;44860;53.020;6.738;2024-02-21T01:25:19;15.10;;;3.85;;
59074;SDS011;44860;53.020;6.738;2024-02-21T01:27:45;14.95;;;3.92;;
59074;SDS011;44860;53.020;6.738;2024-02-21T01:30:10;20.55;;;4.72;;
59074;SDS011;44860;53.020;6.738;2024-02-21T01:32:36;18.30;;;4.97;;
59074;SDS011;44860;53.020;6.738;2024-02-21T01:35:02;18.10;;;4.47;;
59074;SDS011;44860;53.020;6.738;2024-02-21T01:37:28;17.63;;;4.68;;
59074;SDS011;44860;53.020;6.738;2024-02-21T01:39:54;16.92;;;4.93;;
59074;SDS011;44860;53.020;6.738;2024-02-21T01:42:19;17.30;;;5.40;;
59074;SDS011;44860;53.020;6.738;2024-02-21T01:44:45;17.65;;;5.22;;
59074;SDS011;44860;53.020;6.738;2024-02-21T01:47:11;17.42;;;5.20;;
59074;SDS011;44860;53.020;6.738;2024-02-21T01:49:40;15.70;;;4.65;;
59074;SDS011;44860;53.020;6.738;2024-02-21T01:52:06;23.02;;;5.30;;
59074;SDS011;44860;53.020;6.738;2024-02-21T01:54:33;18.83;;;5.22;;
59074;SDS011;44860;53.020;6.738;2024-02-21T01:56:59;21.27;;;5.55;;
59074;SDS011;44860;53.020;6.738;2024-02-21T01:59:26;24.10;;;5.88;;
59074;SDS011;44860;53.020;6.738;2024-02-21T02:01:51;21.05;;;5.75;;
59074;SDS011;44860;53.020;6.738;2024-02-21T02:04:18;18.58;;;5.50;;
59074;SDS011;44860;53.020;6.738;2024-02-21T02:06:45;22.73;;;5.72;;
59074;SDS011;44860;53.020;6.738;2024-02-21T02:09:11;19.30;;;5.28;;
59074;SDS011;44860;53.020;6.738;2024-02-21T02:11:37;25.92;;;5.93;;
59074;SDS011;44860;53.020;6.738;2024-02-21T02:14:03;20.17;;;5.70;;
59074;SDS011;44860;53.020;6.738;2024-02-21T02:16:28;18.85;;;5.65;;
59074;SDS011;44860;53.020;6.738;2024-02-21T02:18:54;19.98;;;6.10;;
59074;SDS011;44860;53.020;6.738;2024-02-21T02:21:26;18.15;;;5.97;;
59074;SDS011;44860;53.020;6.738;2024-02-21T02:23:56;21.48;;;6.38;;
59074;SDS011;44860;53.020;6.738;2024-02-21T02:26:22;20.55;;;6.30;;
59074;SDS011;44860;53.020;6.738;2024-02-21T02:28:47;20.48;;;6.45;;
59074;SDS011;44860;53.020;6.738;2024-02-21T02:31:13;17.05;;;6.40;;
59074;SDS011;44860;53.020;6.738;2024-02-21T02:33:39;20.02;;;6.28;;
59074;SDS011;44860;53.020;6.738;2024-02-21T02:36:05;19.70;;;6.35;;
59074;SDS011;44860;53.020;6.738;2024-02-21T02:38:31;17.85;;;6.15;;
59074;SDS011;44860;53.020;6.738;2024-02-21T02:40:56;19.10;;;6.25;;
59074;SDS011;44860;53.020;6.738;2024-02-21T02:43:22;21.00;;;6.38;;
59074;SDS011;44860;53.020;6.738;2024-02-21T02:45:48;22.42;;;6.70;;
59074;SDS011;44860;53.020;6.738;2024-02-21T02:48:13;18.77;;;5.75;;
59074;SDS011;44860;53.020;6.738;2024-02-21T02:50:39;16.63;;;6.10;;
59074;SDS011;44860;53.020;6.738;2024-02-21T02:53:05;18.35;;;5.95;;
59074;SDS011;44860;53.020;6.738;2024-02-21T02:55:30;15.43;;;5.50;;
59074;SDS011;44860;53.020;6.738;2024-02-21T02:57:56;15.73;;;6.32;;
59074;SDS011;44860;53.020;6.738;2024-02-21T03:00:22;18.73;;;6.03;;
59074;SDS011;44860;53.020;6.738;2024-02-21T03:02:48;15.00;;;5.47;;
59074;SDS011;44860;53.020;6.738;2024-02-21T03:05:15;19.80;;;7.07;;
59074;SDS011;44860;53.020;6.738;2024-02-21T03:07:43;19.60;;;6.40;;
59074;SDS011;44860;53.020;6.738;2024-02-21T03:10:09;23.50;;;6.65;;
59074;SDS011;44860;53.020;6.738;2024-02-21T03:12:36;14.20;;;5.93;;
59074;SDS011;44860;53.020;6.738;2024-02-21T03:15:02;20.75;;;6.65;;
59074;SDS011;44860;53.020;6.738;2024-02-21T03:17:29;19.80;;;6.68;;
59074;SDS011;44860;53.020;6.738;2024-02-21T03:19:55;15.60;;;6.60;;
59074;SDS011;44860;53.020;6.738;2024-02-21T03:22:21;21.88;;;6.88;;
59074;SDS011;44860;53.020;6.738;2024-02-21T03:24:47;23.48;;;6.90;;
59074;SDS011;44860;53.020;6.738;2024-02-21T03:27:13;19.15;;;7.47;;
59074;SDS011;44860;53.020;6.738;2024-02-21T03:29:38;26.23;;;7.53;;
59074;SDS011;44860;53.020;6.738;2024-02-21T03:32:04;27.17;;;7.68;;
59074;SDS011;44860;53.020;6.738;2024-02-21T03:34:30;22.92;;;7.47;;
59074;SDS011;44860;53.020;6.738;2024-02-21T03:36:56;22.77;;;7.63;;
59074;SDS011;44860;53.020;6.738;2024-02-21T03:39:21;24.27;;;7.50;;
59074;SDS011;44860;53.020;6.738;2024-02-21T03:41:47;20.77;;;7.32;;
59074;SDS011;44860;53.020;6.738;2024-02-21T03:44:13;24.33;;;8.00;;
59074;SDS011;44860;53.020;6.738;2024-02-21T03:46:38;33.28;;;8.23;;
59074;SDS011;44860;53.020;6.738;2024-02-21T03:49:04;24.63;;;8.60;;
59074;SDS011;44860;53.020;6.738;2024-02-21T03:51:30;27.13;;;8.20;;
59074;SDS011;44860;53.020;6.738;2024-02-21T03:53:56;30.73;;;8.95;;
59074;SDS011;44860;53.020;6.738;2024-02-21T03:56:22;21.85;;;8.32;;
59074;SDS011;44860;53.020;6.738;2024-02-21T03:58:47;21.05;;;8.10;;
59074;SDS011;44860;53.020;6.738;2024-02-21T04:01:14;24.15;;;8.20;;
59074;SDS011;44860;53.020;6.738;2024-02-21T04:03:40;24.45;;;8.75;;
59074;SDS011;44860;53.020;6.738;2024-02-21T04:06:07;24.55;;;8.75;;
59074;SDS011;44860;53.020;6.738;2024-02-21T04:08:33;24.98;;;7.85;;
59074;SDS011;44860;53.020;6.738;2024-02-21T04:10:58;25.48;;;8.70;;
59074;SDS011;44860;53.020;6.738;2024-02-21T04:13:24;24.83;;;8.90;;
59074;SDS011;44860;53.020;6.738;2024-02-21T04:15:50;23.75;;;8.63;;
59074;SDS011;44860;53.020;6.738;2024-02-21T04:18:16;22.05;;;8.25;;
59074;SDS011;44860;53.020;6.738;2024-02-21T04:20:42;28.33;;;8.90;;
59074;SDS011;44860;53.020;6.738;2024-02-21T04:23:07;25.55;;;8.90;;
59074;SDS011;44860;53.020;6.738;2024-02-21T04:25:33;23.33;;;8.27;;
59074;SDS011;44860;53.020;6.738;2024-02-21T04:27:59;23.35;;;8.57;;
59074;SDS011;44860;53.020;6.738;2024-02-21T04:30:24;25.50;;;9.43;;
59074;SDS011;44860;53.020;6.738;2024-02-21T04:32:50;27.13;;;8.90;;
59074;SDS011;44860;53.020;6.738;2024-02-21T04:35:16;28.25;;;9.95;;
59074;SDS011;44860;53.020;6.738;2024-02-21T04:37:42;24.88;;;9.50;;
59074;SDS011;44860;53.020;6.738;2024-02-21T04:40:07;25.92;;;10.27;;
59074;SDS011;44860;53.020;6.738;2024-02-21T04:42:34;29.52;;;9.43;;
59074;SDS011;44860;53.020;6.738;2024-02-21T04:45:00;30.65;;;10.38;;
59074;SDS011;44860;53.020;6.738;2024-02-21T04:47:26;24.30;;;10.18;;
59074;SDS011;44860;53.020;6.738;2024-02-21T04:49:52;25.42;;;9.32;;
59074;SDS011;44860;53.020;6.738;2024-02-21T04:52:17;25.92;;;9.82;;
59074;SDS011;44860;53.020;6.738;2024-02-21T04:54:43;25.17;;;9.85;;
59074;SDS011;44860;53.020;6.738;2024-02-21T04:57:09;20.77;;;9.73;;
59074;SDS011;44860;53.020;6.738;2024-02-21T04:59:35;29.42;;;10.82;;
59074;SDS011;44860;53.020;6.738;2024-02-21T05:02:01;24.58;;;10.05;;
59074;SDS011;44860;53.020;6.738;2024-02-21T05:04:27;28.48;;;9.85;;
59074;SDS011;44860;53.020;6.738;2024-02-21T05:06:53;25.30;;;9.85;;
59074;SDS011;44860;53.020;6.738;2024-02-21T05:09:19;28.67;;;9.93;;
59074;SDS011;44860;53.020;6.738;2024-02-21T05:11:45;31.40;;;10.90;;
59074;SDS011;44860;53.020;6.738;2024-02-21T05:14:11;28.35;;;10.15;;
59074;SDS011;44860;53.020;6.738;2024-02-21T05:16:38;26.30;;;10.25;;
59074;SDS011;44860;53.020;6.738;2024-02-21T05:19:04;22.63;;;9.90;;
59074;SDS011;44860;53.020;6.738;2024-02-21T05:21:30;27.80;;;9.90;;
59074;SDS011;44860;53.020;6.738;2024-02-21T05:23:56;28.13;;;9.73;;
59074;SDS011;44860;53.020;6.738;2024-02-21T05:26:22;30.33;;;9.88;;
59074;SDS011;44860;53.020;6.738;2024-02-21T05:28:48;26.48;;;9.10;;
59074;SDS011;44860;53.020;6.738;2024-02-21T05:31:17;28.17;;;9.88;;
59074;SDS011;44860;53.020;6.738;2024-02-21T05:33:43;30.98;;;10.95;;
59074;SDS011;44860;53.020;6.738;2024-02-21T05:36:10;33.70;;;11.15;;
59074;SDS011;44860;53.020;6.738;2024-02-21T05:38:36;36.28;;;11.43;;
59074;SDS011;44860;53.020;6.738;2024-02-21T05:41:01;35.03;;;11.75;;
59074;SDS011;44860;53.020;6.738;2024-02-21T05:43:27;41.20;;;12.55;;
59074;SDS011;44860;53.020;6.738;2024-02-21T05:45:53;37.95;;;11.35;;
59074;SDS011;44860;53.020;6.738;2024-02-21T05:48:19;38.67;;;13.63;;
59074;SDS011;44860;53.020;6.738;2024-02-21T05:50:45;43.15;;;13.27;;
59074;SDS011;44860;53.020;6.738;2024-02-21T05:53:11;42.80;;;13.82;;
59074;SDS011;44860;53.020;6.738;2024-02-21T05:55:38;45.05;;;14.25;;
59074;SDS011;44860;53.020;6.738;2024-02-21T05:58:03;38.35;;;12.80;;
59074;SDS011;44860;53.020;6.738;2024-02-21T06:00:30;40.40;;;12.82;;
59074;SDS011;44860;53.020;6.738;2024-02-21T06:02:57;40.13;;;13.77;;
59074;SDS011;44860;53.020;6.738;2024-02-21T06:05:23;34.45;;;13.30;;
59074;SDS011;44860;53.020;6.738;2024-02-21T06:07:48;37.60;;;14.77;;
59074;SDS011;44860;53.020;6.738;2024-02-21T06:10:14;46.88;;;15.00;;
59074;SDS011;44860;53.020;6.738;2024-02-21T06:12:40;42.83;;;13.48;;
59074;SDS011;44860;53.020;6.738;2024-02-21T06:15:06;36.97;;;13.90;;
59074;SDS011;44860;53.020;6.738;2024-02-21T06:17:32;34.67;;;13.27;;
59074;SDS011;44860;53.020;6.738;2024-02-21T06:19:57;43.67;;;13.93;;
59074;SDS011;44860;53.020;6.738;2024-02-21T06:22:23;47.58;;;14.20;;
59074;SDS011;44860;53.020;6.738;2024-02-21T06:24:49;38.72;;;14.57;;
59074;SDS011;44860;53.020;6.738;2024-02-21T06:27:15;48.03;;;14.25;;
59074;SDS011;44860;53.020;6.738;2024-02-21T06:29:41;50.47;;;15.50;;
59074;SDS011;44860;53.020;6.738;2024-02-21T06:32:07;42.78;;;14.20;;
59074;SDS011;44860;53.020;6.738;2024-02-21T06:34:32;49.38;;;13.20;;
59074;SDS011;44860;53.020;6.738;2024-02-21T06:36:58;49.00;;;13.77;;
59074;SDS011;44860;53.020;6.738;2024-02-21T06:39:24;46.30;;;13.05;;
59074;SDS011;44860;53.020;6.738;2024-02-21T06:41:50;46.85;;;13.30;;
59074;SDS011;44860;53.020;6.738;2024-02-21T06:44:16;45.03;;;13.10;;
59074;SDS011;44860;53.020;6.738;2024-02-21T06:46:42;49.38;;;13.00;;
59074;SDS011;44860;53.020;6.738;2024-02-21T06:49:08;49.30;;;13.50;;
59074;SDS011;44860;53.020;6.738;2024-02-21T06:51:34;52.35;;;13.85;;
59074;SDS011;44860;53.020;6.738;2024-02-21T06:54:00;47.03;;;13.85;;
59074;SDS011;44860;53.020;6.738;2024-02-21T06:56:25;50.50;;;14.10;;
59074;SDS011;44860;53.020;6.738;2024-02-21T06:58:57;41.70;;;13.93;;
59074;SDS011;44860;53.020;6.738;2024-02-21T07:01:23;51.80;;;14.80;;
59074;SDS011;44860;53.020;6.738;2024-02-21T07:03:49;41.97;;;14.05;;
59074;SDS011;44860;53.020;6.738;2024-02-21T07:06:15;43.97;;;14.00;;
59074;SDS011;44860;53.020;6.738;2024-02-21T07:08:41;41.88;;;13.77;;
59074;SDS011;44860;53.020;6.738;2024-02-21T07:11:07;44.08;;;13.75;;
59074;SDS011;44860;53.020;6.738;2024-02-21T07:13:32;37.47;;;12.35;;
59074;SDS011;44860;53.020;6.738;2024-02-21T07:15:58;37.88;;;13.32;;
59074;SDS011;44860;53.020;6.738;2024-02-21T07:18:24;39.97;;;13.50;;
59074;SDS011;44860;53.020;6.738;2024-02-21T07:20:52;39.47;;;13.35;;
59074;SDS011;44860;53.020;6.738;2024-02-21T07:23:18;39.67;;;13.15;;
59074;SDS011;44860;53.020;6.738;2024-02-21T07:25:44;30.02;;;12.40;;
59074;SDS011;44860;53.020;6.738;2024-02-21T07:28:10;39.75;;;13.93;;
59074;SDS011;44860;53.020;6.738;2024-02-21T07:30:36;40.20;;;13.05;;
59074;SDS011;44860;53.020;6.738;2024-02-21T07:33:01;30.83;;;12.65;;
59074;SDS011;44860;53.020;6.738;2024-02-21T07:35:27;40.50;;;13.27;;
59074;SDS011;44860;53.020;6.738;2024-02-21T07:37:53;26.85;;;12.85;;
59074;SDS011;44860;53.020;6.738;2024-02-21T07:40:19;33.63;;;12.93;;
59074;SDS011;44860;53.020;6.738;2024-02-21T07:42:44;36.50;;;12.07;;
59074;SDS011;44860;53.020;6.738;2024-02-21T07:45:10;25.42;;;12.25;;
59074;SDS011;44860;53.020;6.738;2024-02-21T07:47:36;36.35;;;12.07;;
59074;SDS011;44860;53.020;6.738;2024-02-21T07:50:02;29.45;;;12.88;;
59074;SDS011;44860;53.020;6.738;2024-02-21T07:52:29;31.58;;;12.90;;
59074;SDS011;44860;53.020;6.738;2024-02-21T07:54:54;26.85;;;12.18;;
59074;SDS011;44860;53.020;6.738;2024-02-21T07:57:20;32.70;;;11.85;;
59074;SDS011;44860;53.020;6.738;2024-02-21T07:59:46;28.10;;;11.55;;
59074;SDS011;44860;53.020;6.738;2024-02-21T08:02:15;29.27;;;12.07;;
59074;SDS011;44860;53.020;6.738;2024-02-21T08:04:42;30.75;;;13.25;;
59074;SDS011;44860;53.020;6.738;2024-02-21T08:07:07;29.90;;;13.25;;
59074;SDS011;44860;53.020;6.738;2024-02-21T08:09:35;33.15;;;13.82;;
59074;SDS011;44860;53.020;6.738;2024-02-21T08:12:03;36.35;;;14.82;;
59074;SDS011;44860;53.020;6.738;2024-02-21T08:14:29;30.10;;;14.63;;
59074;SDS011;44860;53.020;6.738;2024-02-21T08:16:55;38.45;;;15.93;;
59074;SDS011;44860;53.020;6.738;2024-02-21T08:19:21;27.73;;;14.95;;
59074;SDS011;44860;53.020;6.738;2024-02-21T08:21:49;35.30;;;16.05;;
59074;SDS011;44860;53.020;6.738;2024-02-21T08:24:15;38.85;;;16.48;;
59074;SDS011;44860;53.020;6.738;2024-02-21T08:26:41;37.28;;;16.33;;
59074;SDS011;44860;53.020;6.738;2024-02-21T08:29:07;35.90;;;16.88;;
59074;SDS011;44860;53.020;6.738;2024-02-21T08:31:33;36.75;;;17.13;;
59074;SDS011;44860;53.020;6.738;2024-02-21T08:33:59;34.03;;;17.08;;
59074;SDS011;44860;53.020;6.738;2024-02-21T08:36:29;28.15;;;16.25;;
59074;SDS011;44860;53.020;6.738;2024-02-21T08:38:55;33.22;;;17.05;;
59074;SDS011;44860;53.020;6.738;2024-02-21T08:41:22;32.53;;;17.50;;
59074;SDS011;44860;53.020;6.738;2024-02-21T08:43:51;31.25;;;17.65;;
59074;SDS011;44860;53.020;6.738;2024-02-21T08:46:17;32.72;;;17.70;;
59074;SDS011;44860;53.020;6.738;2024-02-21T08:48:43;29.92;;;17.38;;
59074;SDS011;44860;53.020;6.738;2024-02-21T08:51:11;34.20;;;18.40;;
59074;SDS011;44860;53.020;6.738;2024-02-21T08:53:40;32.83;;;17.48;;
59074;SDS011;44860;53.020;6.738;2024-02-21T08:56:06;33.28;;;17.92;;
59074;SDS011;44860;53.020;6.738;2024-02-21T08:58:35;31.95;;;17.23;;
59074;SDS011;44860;53.020;6.738;2024-02-21T09:01:05;33.92;;;18.67;;
59074;SDS011;44860;53.020;6.738;2024-02-21T09:03:36;29.10;;;18.75;;
59074;SDS011;44860;53.020;6.738;2024-02-21T09:06:03;31.85;;;18.42;;
59074;SDS011;44860;53.020;6.738;2024-02-21T09:08:32;32.83;;;20.13;;
59074;SDS011;44860;53.020;6.738;2024-02-21T09:11:02;29.40;;;19.25;;
59074;SDS011;44860;53.020;6.738;2024-02-21T09:13:28;31.42;;;20.13;;
59074;SDS011;44860;53.020;6.738;2024-02-21T09:15:55;32.45;;;19.83;;
59074;SDS011;44860;53.020;6.738;2024-02-21T09:18:20;32.28;;;20.08;;
59074;SDS011;44860;53.020;6.738;2024-02-21T09:20:46;30.23;;;20.70;;
59074;SDS011;44860;53.020;6.738;2024-02-21T09:23:12;37.33;;;21.38;;
59074;SDS011;44860;53.020;6.738;2024-02-21T09:25:38;30.42;;;21.02;;
59074;SDS011;44860;53.020;6.738;2024-02-21T09:28:05;30.67;;;21.08;;
59074;SDS011;44860;53.020;6.738;2024-02-21T09:30:31;32.53;;;22.00;;
59074;SDS011;44860;53.020;6.738;2024-02-21T09:32:57;36.33;;;22.65;;
59074;SDS011;44860;53.020;6.738;2024-02-21T09:35:26;41.05;;;22.45;;
59074;SDS011;44860;53.020;6.738;2024-02-21T09:37:52;36.13;;;23.65;;
59074;SDS011;44860;53.020;6.738;2024-02-21T09:40:18;30.48;;;22.35;;
59074;SDS011;44860;53.020;6.738;2024-02-21T09:42:45;31.25;;;22.17;;
59074;SDS011;44860;53.020;6.738;2024-02-21T09:45:22;32.40;;;22.77;;
59074;SDS011;44860;53.020;6.738;2024-02-21T09:50:52;34.13;;;22.37;;
59074;SDS011;44860;53.020;6.738;2024-02-21T09:53:20;35.33;;;22.10;;
59074;SDS011;44860;53.020;6.738;2024-02-21T09:55:49;30.38;;;21.60;;
59074;SDS011;44860;53.020;6.738;2024-02-21T09:58:15;32.97;;;22.00;;
59074;SDS011;44860;53.020;6.738;2024-02-21T10:00:41;31.95;;;22.48;;
59074;SDS011;44860;53.020;6.738;2024-02-21T10:03:07;32.70;;;22.63;;
59074;SDS011;44860;53.020;6.738;2024-02-21T10:05:37;36.88;;;21.98;;
59074;SDS011;44860;53.020;6.738;2024-02-21T10:08:04;36.55;;;23.02;;
59074;SDS011;44860;53.020;6.738;2024-02-21T10:10:30;30.85;;;21.95;;
59074;SDS011;44860;53.020;6.738;2024-02-21T10:13:07;31.25;;;22.55;;
59074;SDS011;44860;53.020;6.738;2024-02-21T10:15:32;34.72;;;22.92;;
59074;SDS011;44860;53.020;6.738;2024-02-21T10:17:59;38.00;;;23.27;;
59074;SDS011;44860;53.020;6.738;2024-02-21T10:20:26;38.13;;;23.20;;
59074;SDS011;44860;53.020;6.738;2024-02-21T10:23:02;34.13;;;22.85;;
59074;SDS011;44860;53.020;6.738;2024-02-21T10:25:32;35.30;;;22.90;;
59074;SDS011;44860;53.020;6.738;2024-02-21T10:28:13;38.08;;;22.70;;
59074;SDS011;44860;53.020;6.738;2024-02-21T10:30:50;33.83;;;21.90;;
59074;SDS011;44860;53.020;6.738;2024-02-21T10:33:19;33.53;;;23.67;;
59074;SDS011;44860;53.020;6.738;2024-02-21T10:35:46;30.35;;;21.35;;
59074;SDS011;44860;53.020;6.738;2024-02-21T10:38:12;31.52;;;21.67;;
59074;SDS011;44860;53.020;6.738;2024-02-21T10:40:38;31.08;;;22.70;;
59074;SDS011;44860;53.020;6.738;2024-02-21T10:43:03;26.35;;;21.33;;
59074;SDS011;44860;53.020;6.738;2024-02-21T10:45:36;29.77;;;21.35;;
59074;SDS011;44860;53.020;6.738;2024-02-21T10:50:36;29.25;;;20.65;;
59074;SDS011;44860;53.020;6.738;2024-02-21T10:59:00;27.23;;;20.02;;
59074;SDS011;44860;53.020;6.738;2024-02-21T11:01:28;26.52;;;20.10;;
59074;SDS011;44860;53.020;6.738;2024-02-21T11:03:57;26.83;;;19.15;;
59074;SDS011;44860;53.020;6.738;2024-02-21T11:06:26;25.13;;;18.48;;
59074;SDS011;44860;53.020;6.738;2024-02-21T11:09:06;27.33;;;18.02;;
59074;SDS011;44860;53.020;6.738;2024-02-21T11:11:43;23.67;;;16.92;;
59074;SDS011;44860;53.020;6.738;2024-02-21T11:14:19;22.40;;;15.68;;
59074;SDS011;44860;53.020;6.738;2024-02-21T11:16:46;24.33;;;16.35;;
59074;SDS011;44860;53.020;6.738;2024-02-21T11:21:48;21.40;;;15.45;;
59074;SDS011;44860;53.020;6.738;2024-02-21T11:29:39;26.20;;;15.68;;
59074;SDS011;44860;53.020;6.738;2024-02-21T11:32:15;22.33;;;14.35;;
59074;SDS011;44860;53.020;6.738;2024-02-21T11:34:56;23.13;;;13.85;;
59074;SDS011;44860;53.020;6.738;2024-02-21T11:37:32;22.63;;;14.98;;
59074;SDS011;44860;53.020;6.738;2024-02-21T11:39:59;21.77;;;13.55;;
59074;SDS011;44860;53.020;6.738;2024-02-21T11:42:26;19.95;;;13.18;;
59074;SDS011;44860;53.020;6.738;2024-02-21T11:44:53;20.38;;;12.95;;
59074;SDS011;44860;53.020;6.738;2024-02-21T11:47:21;19.40;;;12.15;;
59074;SDS011;44860;53.020;6.738;2024-02-21T11:49:48;20.55;;;12.88;;
59074;SDS011;44860;53.020;6.738;2024-02-21T11:52:19;18.00;;;12.40;;
59074;SDS011;44860;53.020;6.738;2024-02-21T11:54:50;21.45;;;12.65;;
59074;SDS011;44860;53.020;6.738;2024-02-21T11:57:16;20.88;;;12.70;;
59074;SDS011;44860;53.020;6.738;2024-02-21T11:59:44;16.88;;;12.77;;
59074;SDS011;44860;53.020;6.738;2024-02-21T12:02:10;19.25;;;12.45;;
59074;SDS011;44860;53.020;6.738;2024-02-21T12:04:36;22.70;;;12.82;;
59074;SDS011;44860;53.020;6.738;2024-02-21T12:07:02;20.77;;;12.45;;
59074;SDS011;44860;53.020;6.738;2024-02-21T12:09:30;21.85;;;12.98;;
59074;SDS011;44860;53.020;6.738;2024-02-21T12:11:57;18.55;;;12.00;;
59074;SDS011;44860;53.020;6.738;2024-02-21T12:16:56;21.85;;;12.65;;
59074;SDS011;44860;53.020;6.738;2024-02-21T12:19:22;17.33;;;12.48;;
59074;SDS011;44860;53.020;6.738;2024-02-21T12:21:48;18.80;;;12.10;;
59074;SDS011;44860;53.020;6.738;2024-02-21T12:24:26;18.35;;;11.40;;
59074;SDS011;44860;53.020;6.738;2024-02-21T12:26:52;19.77;;;12.50;;
59074;SDS011;44860;53.020;6.738;2024-02-21T12:29:19;15.73;;;11.68;;
59074;SDS011;44860;53.020;6.738;2024-02-21T12:31:45;16.20;;;11.82;;
59074;SDS011;44860;53.020;6.738;2024-02-21T12:34:11;17.52;;;11.07;;
59074;SDS011;44860;53.020;6.738;2024-02-21T12:36:41;18.70;;;11.75;;
59074;SDS011;44860;53.020;6.738;2024-02-21T12:39:14;19.33;;;11.85;;
59074;SDS011;44860;53.020;6.738;2024-02-21T12:41:41;14.48;;;10.55;;
59074;SDS011;44860;53.020;6.738;2024-02-21T12:44:09;16.20;;;10.93;;
59074;SDS011;44860;53.020;6.738;2024-02-21T12:46:38;13.95;;;10.07;;
59074;SDS011;44860;53.020;6.738;2024-02-21T12:49:04;14.43;;;10.18;;
59074;SDS011;44860;53.020;6.738;2024-02-21T12:51:32;13.55;;;9.60;;
59074;SDS011;44860;53.020;6.738;2024-02-21T12:53:58;15.77;;;10.15;;
59074;SDS011;44860;53.020;6.738;2024-02-21T12:56:24;18.60;;;10.40;;
59074;SDS011;44860;53.020;6.738;2024-02-21T12:58:52;13.00;;;9.65;;
59074;SDS011;44860;53.020;6.738;2024-02-21T13:01:18;14.13;;;9.13;;
59074;SDS011;44860;53.020;6.738;2024-02-21T13:03:44;11.85;;;8.55;;
59074;SDS011;44860;53.020;6.738;2024-02-21T13:06:11;11.98;;;9.52;;
59074;SDS011;44860;53.020;6.738;2024-02-21T13:08:37;11.35;;;8.93;;
59074;SDS011;44860;53.020;6.738;2024-02-21T13:11:03;11.73;;;8.32;;
59074;SDS011;44860;53.020;6.738;2024-02-21T13:13:30;12.05;;;7.55;;
59074;SDS011;44860;53.020;6.738;2024-02-21T13:15:56;11.90;;;7.70;;
59074;SDS011;44860;53.020;6.738;2024-02-21T13:18:25;10.27;;;6.75;;
59074;SDS011;44860;53.020;6.738;2024-02-21T13:20:51;9.77;;;7.00;;
59074;SDS011;44860;53.020;6.738;2024-02-21T13:23:16;10.00;;;6.95;;
59074;SDS011;44860;53.020;6.738;2024-02-21T13:25:42;10.43;;;6.22;;
59074;SDS011;44860;53.020;6.738;2024-02-21T13:28:10;9.00;;;6.60;;
59074;SDS011;44860;53.020;6.738;2024-02-21T13:30:36;9.82;;;5.97;;
59074;SDS011;44860;53.020;6.738;2024-02-21T13:33:02;7.65;;;6.18;;
59074;SDS011;44860;53.020;6.738;2024-02-21T13:35:28;9.02;;;6.22;;
59074;SDS011;44860;53.020;6.738;2024-02-21T13:37:54;10.68;;;6.90;;
59074;SDS011;44860;53.020;6.738;2024-02-21T13:40:19;8.18;;;6.03;;
59074;SDS011;44860;53.020;6.738;2024-02-21T13:42:45;8.85;;;6.10;;
59074;SDS011;44860;53.020;6.738;2024-02-21T13:45:11;8.65;;;6.20;;
59074;SDS011;44860;53.020;6.738;2024-02-21T13:47:36;10.23;;;6.63;;
59074;SDS011;44860;53.020;6.738;2024-02-21T13:50:03;9.30;;;6.47;;
59074;SDS011;44860;53.020;6.738;2024-02-21T13:52:30;8.40;;;6.75;;
59074;SDS011;44860;53.020;6.738;2024-02-21T13:54:56;9.50;;;6.45;;
59074;SDS011;44860;53.020;6.738;2024-02-21T13:57:22;9.30;;;6.85;;
59074;SDS011;44860;53.020;6.738;2024-02-21T13:59:48;10.40;;;6.97;;
59074;SDS011;44860;53.020;6.738;2024-02-21T14:02:13;9.80;;;7.15;;
59074;SDS011;44860;53.020;6.738;2024-02-21T14:04:39;9.88;;;7.20;;
59074;SDS011;44860;53.020;6.738;2024-02-21T14:07:05;9.55;;;7.28;;
59074;SDS011;44860;53.020;6.738;2024-02-21T14:09:30;11.73;;;7.25;;
59074;SDS011;44860;53.020;6.738;2024-02-21T14:11:58;10.23;;;6.85;;
59074;SDS011;44860;53.020;6.738;2024-02-21T14:14:23;10.30;;;6.75;;
59074;SDS011;44860;53.020;6.738;2024-02-21T14:16:49;10.27;;;7.05;;
59074;SDS011;44860;53.020;6.738;2024-02-21T14:19:15;10.77;;;6.63;;
59074;SDS011;44860;53.020;6.738;2024-02-21T14:21:40;10.18;;;6.70;;
59074;SDS011;44860;53.020;6.738;2024-02-21T14:24:06;11.85;;;7.45;;
59074;SDS011;44860;53.020;6.738;2024-02-21T14:26:32;10.00;;;6.80;;
59074;SDS011;44860;53.020;6.738;2024-02-21T14:28:58;12.32;;;6.93;;
59074;SDS011;44860;53.020;6.738;2024-02-21T14:31:24;11.40;;;7.00;;
59074;SDS011;44860;53.020;6.738;2024-02-21T14:33:50;10.70;;;7.10;;
59074;SDS011;44860;53.020;6.738;2024-02-21T14:36:16;10.82;;;7.20;;
59074;SDS011;44860;53.020;6.738;2024-02-21T14:38:42;12.30;;;6.88;;
59074;SDS011;44860;53.020;6.738;2024-02-21T14:41:09;13.50;;;7.57;;
59074;SDS011;44860;53.020;6.738;2024-02-21T14:43:38;11.88;;;7.30;;
59074;SDS011;44860;53.020;6.738;2024-02-21T14:46:04;11.25;;;7.30;;